Time;durP1;ratioP1;P1;durP2;ratioP2;P2;SDS_P1;SDS_P2;PMS_P1;PMS_P2;Temp;Humidity;BMP_temperature;BMP_pressure;BME280_temperature;BME280_humidity;BME280_pressure;Samples;Min_cycle;Max_cycle;Signal;HPM_P1;HPM_P2
2024/03/23 00:00:20;;;;;;;23.92;6.35;;;;;;;9.49;100.00;101009.09;5065220;28;20040;-60
2024/03/23 00:02:47;;;;;;;21.92;6.72;;;;;;;9.30;100.00;101008.28;5047859;28;20056;-59
2024/03/23 00:05:14;;;;;;;18.83;6.80;;;;;;;9.60;100.00;101007.81;5014981;28;20056;-58
2024/03/23 00:07:42;;;;;;;25.30;7.22;;;;;;;9.42;100.00;101018.81;5013180;28;20053;-59
2024/03/23 00:10:10;;;;;;;25.92;7.40;;;;;;;9.12;100.00;101020.09;5049212;28;20791;-57
2024/03/23 00:12:38;;;;;;;22.00;7.35;;;;;;;9.19;100.00;101019.75;5065592;28;20637;-57
2024/03/23 00:15:05;;;;;;;19.73;7.65;;;;;;;9.25;100.00;101027.63;5055793;28;20055;-56
2024/03/23 00:17:33;;;;;;;28.08;8.85;;;;;;;9.42;100.00;101030.66;5029121;28;20057;-58
2024/03/23 00:20:01;;;;;;;25.73;8.48;;;;;;;9.32;100.00;101032.72;5043919;28;20052;-59
2024/03/23 00:22:30;;;;;;;25.17;8.13;;;;;;;9.20;100.00;101027.69;5030212;28;20048;-59
2024/03/23 00:24:57;;;;;;;28.15;8.68;;;;;;;9.26;100.00;101031.19;5045524;28;20053;-58
2024/03/23 00:27:29;;;;;;;26.50;9.27;;;;;;;9.22;100.00;101032.88;5031473;28;20068;-59
2024/03/23 00:29:56;;;;;;;31.55;9.45;;;;;;;9.01;100.00;101029.59;5022926;28;20056;-57
2024/03/23 00:32:24;;;;;;;25.67;9.15;;;;;;;9.20;100.00;101033.19;5045048;28;20048;-56
2024/03/23 00:34:51;;;;;;;32.97;9.55;;;;;;;9.17;100.00;101030.22;5077363;28;20064;-60
2024/03/23 00:37:21;;;;;;;29.38;9.52;;;;;;;9.07;100.00;101034.72;5048133;28;20506;-59
2024/03/23 00:39:49;;;;;;;37.42;11.07;;;;;;;9.07;100.00;101025.66;5030361;28;20052;-60
2024/03/23 00:42:17;;;;;;;35.17;10.02;;;;;;;9.48;100.00;101023.16;5051592;28;20041;-58
2024/03/23 00:44:50;;;;;;;32.42;9.65;;;;;;;9.57;100.00;101024.91;5035013;28;20049;-55
2024/03/23 00:47:21;;;;;;;24.05;8.48;;;;;;;9.03;100.00;101030.13;5038811;28;20052;-60
2024/03/23 00:49:48;;;;;;;28.73;8.82;;;;;;;9.39;100.00;101013.94;5052637;28;20049;-57
2024/03/23 00:52:16;;;;;;;27.55;8.45;;;;;;;9.25;100.00;101015.78;5051974;28;20037;-58
2024/03/23 00:54:43;;;;;;;33.47;9.63;;;;;;;9.26;100.00;101023.72;5053213;28;20056;-60
2024/03/23 00:57:13;;;;;;;30.80;8.75;;;;;;;9.15;100.00;101015.94;5051234;28;20061;-60
2024/03/23 00:59:42;;;;;;;33.45;9.00;;;;;;;9.16;100.00;101021.16;5058329;28;20064;-64
2024/03/23 01:02:20;;;;;;;32.10;8.70;;;;;;;9.08;100.00;101027.31;5052826;28;20041;-61
2024/03/23 01:04:47;;;;;;;27.23;8.07;;;;;;;9.23;100.00;101015.28;5035916;28;20049;-56
2024/03/23 01:07:22;;;;;;;26.77;8.30;;;;;;;9.09;100.00;101023.44;5053139;28;20045;-60
2024/03/23 01:09:58;;;;;;;37.25;9.18;;;;;;;9.36;100.00;101017.28;5052602;28;20628;-56
2024/03/23 01:12:29;;;;;;;34.65;8.63;;;;;;;9.26;100.00;101014.69;5052688;28;20124;-62
2024/03/23 01:14:59;;;;;;;30.08;9.20;;;;;;;9.66;100.00;101017.63;5053044;28;20060;-61
2024/03/23 01:17:28;;;;;;;31.25;9.68;;;;;;;9.49;100.00;101020.09;5035804;28;20052;-60
2024/03/23 01:19:55;;;;;;;31.80;9.25;;;;;;;9.75;100.00;101015.81;5028823;28;20738;-61
2024/03/23 01:22:21;;;;;;;27.80;8.30;;;;;;;9.72;100.00;101010.91;5071213;28;20052;-61
2024/03/23 01:24:48;;;;;;;29.83;8.32;;;;;;;9.78;100.00;101015.19;5054833;28;20067;-59
2024/03/23 01:27:20;;;;;;;31.40;8.20;;;;;;;9.57;100.00;101019.41;5035047;28;20057;-56
2024/03/23 01:29:47;;;;;;;34.47;9.05;;;;;;;9.63;100.00;101033.91;5071616;28;20052;-58
2024/03/23 01:32:14;;;;;;;29.50;9.05;;;;;;;9.77;100.00;101016.34;5070559;28;20051;-59
2024/03/23 01:34:40;;;;;;;29.80;8.13;;;;;;;9.95;99.46;101021.00;5037148;28;20057;-54
2024/03/23 01:37:07;;;;;;;31.98;8.00;;;;;;;9.53;99.27;101023.06;5070349;28;20057;-58
2024/03/23 01:39:33;;;;;;;32.90;7.78;;;;;;;9.33;99.60;101021.44;5053457;28;20048;-59
2024/03/23 01:42:00;;;;;;;28.75;6.88;;;;;;;9.03;100.00;101033.69;5051929;28;20041;-58
2024/03/23 01:44:26;;;;;;;32.72;7.47;;;;;;;9.20;100.00;101019.44;5067771;28;20060;-59
2024/03/23 01:46:52;;;;;;;25.70;7.25;;;;;;;9.10;100.00;101028.63;5050608;28;20156;-58
2024/03/23 01:49:22;;;;;;;39.58;8.27;;;;;;;9.42;100.00;101027.91;5068226;28;20048;-59
2024/03/23 01:51:48;;;;;;;36.58;8.75;;;;;;;9.46;100.00;101025.38;5067915;28;20051;-57
2024/03/23 01:54:16;;;;;;;31.83;7.22;;;;;;;9.67;99.60;101024.75;5051750;28;20688;-58
2024/03/23 01:56:42;;;;;;;22.15;5.82;;;;;;;9.62;98.13;101030.34;5068504;28;20060;-59
2024/03/23 01:59:09;;;;;;;33.03;6.82;;;;;;;9.71;97.75;101033.22;5051549;28;20056;-59
2024/03/23 02:01:38;;;;;;;22.67;5.90;;;;;;;9.08;98.30;101033.59;5051741;28;20045;-58
2024/03/23 02:04:04;;;;;;;32.33;6.20;;;;;;;9.24;99.26;101022.41;5067539;28;20056;-57
2024/03/23 02:06:31;;;;;;;31.60;6.25;;;;;;;9.05;98.64;101031.47;5067694;28;20049;-59
2024/03/23 02:08:57;;;;;;;27.60;5.82;;;;;;;9.27;99.43;101041.06;5052868;28;20064;-58
2024/03/23 02:11:24;;;;;;;26.65;5.80;;;;;;;9.34;99.16;101025.84;5070798;28;20051;-57
2024/03/23 02:13:53;;;;;;;27.30;5.22;;;;;;;9.22;97.05;101038.38;5036066;28;20064;-60
2024/03/23 02:16:20;;;;;;;31.05;5.85;;;;;;;9.45;97.64;101043.78;5068531;28;20605;-58
2024/03/23 02:18:46;;;;;;;31.92;5.45;;;;;;;9.15;97.89;101040.69;5068326;28;20056;-60
2024/03/23 02:21:13;;;;;;;27.90;5.65;;;;;;;9.46;98.81;101047.38;5068298;28;20052;-61
2024/03/23 02:23:39;;;;;;;27.13;5.15;;;;;;;9.25;97.00;101038.59;5048485;28;20053;-58
2024/03/23 02:26:05;;;;;;;24.17;5.28;;;;;;;9.06;97.21;101055.09;5047942;28;20064;-58
2024/03/23 02:28:31;;;;;;;30.38;5.15;;;;;;;9.27;98.15;101047.38;5048325;28;20064;-58
2024/03/23 02:30:58;;;;;;;24.83;4.55;;;;;;;9.00;100.00;101044.44;5048675;28;20068;-59
2024/03/23 02:33:24;;;;;;;25.42;4.55;;;;;;;9.28;100.00;101046.25;5047346;28;20057;-57
2024/03/23 02:35:56;;;;;;;28.08;5.53;;;;;;;9.57;100.00;101051.59;5047311;28;20053;-59
2024/03/23 02:38:22;;;;;;;25.45;4.57;;;;;;;9.13;97.22;101080.25;5066904;28;20056;-59
2024/03/23 02:40:48;;;;;;;27.60;4.88;;;;;;;8.94;97.79;101065.66;5066911;28;20543;-59
2024/03/23 02:43:14;;;;;;;26.92;4.60;;;;;;;8.57;97.96;101064.75;5050350;28;20051;-57
2024/03/23 02:45:41;;;;;;;22.90;4.22;;;;;;;8.44;98.09;101063.50;5053763;28;20064;-58
2024/03/23 02:48:07;;;;;;;26.83;5.10;;;;;;;8.53;99.61;101069.19;5046888;28;20701;-59
2024/03/23 02:50:33;;;;;;;29.85;5.55;;;;;;;8.64;97.48;101066.06;5066208;28;20061;-56
2024/03/23 02:53:00;;;;;;;28.08;4.35;;;;;;;8.53;96.67;101063.69;5066263;28;20056;-57
2024/03/23 02:55:26;;;;;;;33.50;4.43;;;;;;;8.47;96.19;101070.38;5050638;28;20083;-58
2024/03/23 02:57:52;;;;;;;29.23;5.18;;;;;;;8.43;95.57;101064.63;5049881;28;20074;-59
2024/03/23 03:00:19;;;;;;;25.25;4.07;;;;;;;8.50;95.10;101083.50;5067428;28;20044;-59
2024/03/23 03:02:45;;;;;;;22.60;4.25;;;;;;;8.60;94.63;101080.63;5066485;28;20048;-58
2024/03/23 03:05:12;;;;;;;28.10;4.18;;;;;;;8.58;94.53;101072.69;5067203;28;20044;-58
2024/03/23 03:07:40;;;;;;;26.63;4.35;;;;;;;8.91;95.74;101080.00;5067152;28;20055;-58
2024/03/23 03:10:10;;;;;;;27.77;4.55;;;;;;;8.62;92.08;101089.41;5049562;28;20075;-57
2024/03/23 03:12:37;;;;;;;22.42;3.30;;;;;;;8.41;91.68;101088.81;5050043;28;20068;-58
2024/03/23 03:15:04;;;;;;;26.45;4.07;;;;;;;8.28;91.92;101086.72;5066346;28;20048;-57
2024/03/23 03:17:31;;;;;;;25.95;3.67;;;;;;;8.30;92.81;101092.75;5066602;28;20052;-57
2024/03/23 03:19:57;;;;;;;26.77;4.15;;;;;;;8.57;92.86;101090.28;5050136;28;20056;-57
2024/03/23 03:22:23;;;;;;;35.85;4.70;;;;;;;8.46;91.68;101094.25;5049424;28;20057;-57
2024/03/23 03:24:50;;;;;;;24.20;3.85;;;;;;;8.21;91.99;101088.94;5047432;28;20454;-56
2024/03/23 03:27:16;;;;;;;25.52;4.22;;;;;;;8.37;92.28;101095.97;5045585;28;20049;-59
2024/03/23 03:29:42;;;;;;;23.00;3.97;;;;;;;8.39;91.49;101091.03;5045919;28;20059;-58
2024/03/23 03:32:09;;;;;;;29.63;5.07;;;;;;;8.17;91.14;101087.91;5046016;28;20060;-58
2024/03/23 03:34:35;;;;;;;25.02;4.35;;;;;;;8.40;92.07;101078.94;5029413;28;20829;-59
2024/03/23 03:37:02;;;;;;;29.70;5.18;;;;;;;8.60;91.40;101081.47;5060405;28;20045;-60
2024/03/23 03:39:28;;;;;;;30.08;4.88;;;;;;;8.32;90.78;101093.28;5066254;28;20048;-56
2024/03/23 03:41:54;;;;;;;28.65;4.32;;;;;;;8.19;92.80;101096.69;5049156;28;20048;-57
2024/03/23 03:44:20;;;;;;;23.73;4.13;;;;;;;8.37;92.17;101098.72;5048373;28;20049;-59
2024/03/23 03:46:47;;;;;;;25.13;4.50;;;;;;;8.54;92.83;101098.28;5049193;28;20056;-58
2024/03/23 03:49:13;;;;;;;20.75;3.80;;;;;;;8.29;90.17;101095.78;5065638;28;20049;-57
2024/03/23 03:51:39;;;;;;;27.33;4.57;;;;;;;7.91;91.11;101106.50;5065900;28;20052;-57
2024/03/23 03:54:06;;;;;;;28.45;4.65;;;;;;;8.22;92.30;101098.84;5065395;28;20076;-58
2024/03/23 03:56:32;;;;;;;33.67;4.70;;;;;;;8.22;91.99;101115.31;5066053;28;20495;-57
2024/03/23 03:58:58;;;;;;;37.00;4.57;;;;;;;8.35;92.54;101111.91;5065472;28;20052;-57
2024/03/23 04:01:25;;;;;;;28.08;4.68;;;;;;;8.53;91.73;101118.59;5065452;28;20049;-57
2024/03/23 04:03:51;;;;;;;30.42;4.47;;;;;;;8.41;89.51;101113.50;5065375;28;20558;-59
2024/03/23 04:06:20;;;;;;;27.45;4.05;;;;;;;8.59;91.37;101117.44;5049053;28;20060;-60
2024/03/23 04:08:47;;;;;;;31.33;5.43;;;;;;;8.61;90.07;101121.53;5065676;28;20629;-60
2024/03/23 04:11:13;;;;;;;24.20;3.67;;;;;;;8.59;90.16;101125.69;5065655;28;20048;-57
2024/03/23 04:13:41;;;;;;;34.63;5.35;;;;;;;8.52;89.15;101123.28;5064081;28;20048;-60
2024/03/23 04:16:09;;;;;;;27.25;4.35;;;;;;;8.45;89.26;101119.25;5049796;28;20052;-59
2024/03/23 04:18:35;;;;;;;38.47;5.05;;;;;;;8.56;89.41;101120.78;5029264;28;20052;-56
2024/03/23 04:21:01;;;;;;;23.58;4.03;;;;;;;8.40;89.08;101113.81;5057151;28;20063;-58
2024/03/23 04:23:27;;;;;;;23.27;4.18;;;;;;;8.23;90.74;101118.88;5048090;28;20677;-57
2024/03/23 04:25:54;;;;;;;27.13;4.32;;;;;;;8.67;91.34;101125.03;5028792;28;20080;-58
2024/03/23 04:28:20;;;;;;;28.65;4.03;;;;;;;8.43;89.13;101125.03;5045037;28;20555;-59
2024/03/23 04:30:47;;;;;;;33.25;4.65;;;;;;;8.21;90.77;101119.13;5047954;28;20053;-55
2024/03/23 04:33:14;;;;;;;25.13;4.72;;;;;;;8.07;91.64;101126.41;5045419;28;20053;-56
2024/03/23 04:35:41;;;;;;;30.02;4.13;;;;;;;7.96;92.33;101124.84;5067537;28;20063;-56
2024/03/23 04:38:08;;;;;;;29.77;3.83;;;;;;;8.07;91.80;101128.34;5068200;28;20051;-58
2024/03/23 04:40:35;;;;;;;25.23;4.07;;;;;;;8.06;92.44;101130.25;5047499;28;20072;-58
2024/03/23 04:43:01;;;;;;;26.15;4.20;;;;;;;8.29;93.25;101134.22;5046033;28;20056;-57
2024/03/23 04:45:28;;;;;;;25.33;4.70;;;;;;;8.22;93.35;101129.03;5061911;28;20055;-58
2024/03/23 04:47:54;;;;;;;30.20;5.07;;;;;;;8.28;92.47;101129.84;5065306;28;20049;-56
2024/03/23 04:50:20;;;;;;;28.35;3.65;;;;;;;8.20;91.97;101133.97;5048186;28;20064;-59
2024/03/23 04:52:46;;;;;;;24.95;4.00;;;;;;;8.36;91.42;101140.19;5065514;28;20052;-59
2024/03/23 04:55:14;;;;;;;24.48;4.20;;;;;;;8.16;90.67;101141.13;5064998;28;20084;-57
2024/03/23 04:57:40;;;;;;;33.35;4.93;;;;;;;8.21;91.29;101149.31;5064987;28;20065;-59
2024/03/23 05:00:16;;;;;;;23.48;4.40;;;;;;;8.20;91.93;101150.44;5065322;28;20052;-60
2024/03/23 05:02:44;;;;;;;27.73;4.22;;;;;;;8.15;90.80;101155.97;5048190;28;20048;-59
2024/03/23 05:05:12;;;;;;;24.95;3.50;;;;;;;8.59;92.11;101150.41;5065316;28;20052;-58
2024/03/23 05:07:39;;;;;;;27.02;4.30;;;;;;;8.26;90.56;101157.56;5066754;28;20060;-56
2024/03/23 05:10:05;;;;;;;30.02;4.43;;;;;;;8.29;91.19;101161.66;5067797;28;20079;-58
2024/03/23 05:12:32;;;;;;;31.40;3.80;;;;;;;8.07;90.00;101162.09;5027974;28;20064;-58
2024/03/23 05:14:58;;;;;;;24.48;5.20;;;;;;;8.10;91.57;101164.25;5044510;28;20115;-59
2024/03/23 05:17:24;;;;;;;26.05;3.92;;;;;;;8.13;90.17;101165.59;5044845;28;20140;-56
2024/03/23 05:19:51;;;;;;;22.67;2.92;;;;;;;8.25;90.17;101161.41;5030266;28;20094;-59
2024/03/23 05:22:17;;;;;;;24.02;3.97;;;;;;;7.96;89.52;101160.50;5064239;28;20056;-59
2024/03/23 05:24:45;;;;;;;19.92;3.35;;;;;;;8.12;90.70;101178.50;5047926;28;20063;-58
2024/03/23 05:27:11;;;;;;;26.10;3.80;;;;;;;7.88;90.16;101172.91;5068427;28;20079;-56
2024/03/23 05:29:38;;;;;;;19.17;3.60;;;;;;;7.81;89.20;101172.41;5053035;28;20769;-58
2024/03/23 05:32:04;;;;;;;14.90;3.13;;;;;;;7.94;91.66;101171.78;5048428;28;20068;-57
2024/03/23 05:34:30;;;;;;;19.23;3.30;;;;;;;7.86;90.45;101175.09;5031311;28;20463;-57
2024/03/23 05:36:57;;;;;;;19.08;2.97;;;;;;;7.97;89.70;101176.69;5048229;28;20079;-60
2024/03/23 05:39:24;;;;;;;13.73;2.60;;;;;;;8.01;88.51;101190.66;5048383;28;20056;-58
2024/03/23 05:41:50;;;;;;;15.60;2.20;;;;;;;7.91;88.26;101188.78;5065060;28;20041;-57
2024/03/23 05:44:16;;;;;;;15.27;2.50;;;;;;;7.95;88.56;101198.09;5067626;28;20182;-57
2024/03/23 05:46:48;;;;;;;20.05;2.67;;;;;;;7.87;89.58;101189.63;5068114;28;20048;-58
2024/03/23 05:49:15;;;;;;;16.80;2.97;;;;;;;8.07;88.32;101192.25;5068083;28;20056;-57
2024/03/23 05:51:41;;;;;;;15.40;2.40;;;;;;;8.16;89.04;101193.28;5084704;28;20521;-56
2024/03/23 05:54:08;;;;;;;13.05;1.90;;;;;;;7.78;86.90;101191.34;5068176;28;20528;-58
2024/03/23 05:56:34;;;;;;;10.40;1.88;;;;;;;7.82;86.60;101196.00;5067735;28;20052;-57
2024/03/23 05:59:00;;;;;;;10.00;2.03;;;;;;;7.87;89.00;101206.91;5067487;28;20056;-59
2024/03/23 06:01:28;;;;;;;20.40;2.00;;;;;;;7.77;87.27;101204.25;5050518;28;20651;-58
2024/03/23 06:03:55;;;;;;;12.02;2.38;;;;;;;7.65;87.26;101203.75;5067400;28;20044;-58
2024/03/23 06:06:21;;;;;;;14.48;2.67;;;;;;;7.66;88.34;101197.16;5063338;28;20053;-58
2024/03/23 06:08:47;;;;;;;12.43;2.13;;;;;;;7.99;89.71;101196.41;5057035;28;20053;-58
2024/03/23 06:11:13;;;;;;;11.40;1.85;;;;;;;7.85;87.38;101200.06;5030893;28;20537;-59
2024/03/23 06:13:40;;;;;;;11.40;1.85;;;;;;;7.90;89.33;101200.88;5048337;28;20049;-57
2024/03/23 06:16:07;;;;;;;12.98;2.28;;;;;;;7.82;88.64;101206.13;5046740;28;20057;-60
2024/03/23 06:18:33;;;;;;;10.80;2.00;;;;;;;8.06;88.62;101211.72;5046863;28;20459;-59
2024/03/23 06:20:59;;;;;;;12.25;1.92;;;;;;;7.84;87.58;101221.22;5055305;28;20048;-58
2024/03/23 06:23:26;;;;;;;8.85;1.50;;;;;;;7.65;88.44;101227.63;5047949;28;20055;-60
2024/03/23 06:25:52;;;;;;;12.70;2.13;;;;;;;7.73;90.18;101232.50;5064108;28;20518;-58
2024/03/23 06:28:19;;;;;;;10.32;1.80;;;;;;;7.89;89.46;101242.28;5067618;28;20049;-57
2024/03/23 06:30:45;;;;;;;10.55;1.67;;;;;;;7.75;88.99;101238.53;5066589;28;20060;-58
2024/03/23 06:33:11;;;;;;;10.05;1.85;;;;;;;7.74;88.63;101245.13;5050604;28;20155;-59
2024/03/23 06:35:38;;;;;;;14.93;2.00;;;;;;;8.10;89.67;101241.06;5067188;28;20056;-60
2024/03/23 06:38:04;;;;;;;11.85;1.70;;;;;;;7.99;86.74;101242.22;5066006;28;20059;-57
2024/03/23 06:40:30;;;;;;;8.52;1.70;;;;;;;7.81;87.45;101246.44;5067055;28;20055;-60
2024/03/23 06:42:56;;;;;;;11.50;2.13;;;;;;;7.91;88.43;101242.84;5050050;28;20040;-60
2024/03/23 06:45:23;;;;;;;9.38;1.73;;;;;;;7.94;87.21;101261.47;5066798;28;20056;-60
2024/03/23 06:47:50;;;;;;;11.48;2.20;;;;;;;7.94;87.33;101264.19;5046191;28;20056;-59
2024/03/23 06:50:16;;;;;;;12.43;2.00;;;;;;;7.94;89.94;101261.47;5061298;28;20052;-57
2024/03/23 06:52:43;;;;;;;10.88;2.13;;;;;;;8.21;91.33;101252.78;5065675;28;20052;-58
2024/03/23 06:55:09;;;;;;;17.23;2.72;;;;;;;8.28;86.70;101254.13;5066498;28;20040;-59
2024/03/23 06:57:35;;;;;;;12.52;2.25;;;;;;;8.23;86.14;101258.81;5066292;28;20059;-61
2024/03/23 07:00:02;;;;;;;24.90;2.70;;;;;;;8.18;85.68;101264.31;5066617;28;20048;-57
2024/03/23 07:02:29;;;;;;;14.63;2.30;;;;;;;8.12;87.66;101266.31;5050247;28;20051;-58
2024/03/23 07:04:55;;;;;;;18.45;2.95;;;;;;;8.15;87.39;101270.38;5050061;28;20056;-57
2024/03/23 07:07:22;;;;;;;15.02;2.88;;;;;;;8.40;89.10;101273.84;5030198;28;20045;-58
2024/03/23 07:09:48;;;;;;;14.98;2.83;;;;;;;8.30;86.26;101289.56;5051372;28;20059;-56
2024/03/23 07:12:15;;;;;;;9.55;1.50;;;;;;;7.14;86.21;101316.56;5066382;28;20049;-59
2024/03/23 07:14:41;;;;;;;10.63;1.42;;;;;;;6.19;87.31;101309.13;5049287;28;20049;-58
2024/03/23 07:17:07;;;;;;;6.60;1.10;;;;;;;5.74;91.78;101305.13;5066539;28;20156;-58
2024/03/23 07:19:34;;;;;;;7.65;1.10;;;;;;;6.24;92.92;101292.72;5066130;28;20579;-57
2024/03/23 07:22:00;;;;;;;6.15;1.10;;;;;;;6.12;93.91;101297.63;5052039;28;20061;-55
2024/03/23 07:24:26;;;;;;;9.80;1.55;;;;;;;6.40;94.95;101278.78;5044712;28;20053;-56
2024/03/23 07:26:54;;;;;;;9.13;1.80;;;;;;;6.66;94.95;101283.19;5028993;28;20136;-58
2024/03/23 07:29:20;;;;;;;11.43;1.83;;;;;;;7.07;95.04;101272.19;5049509;28;20095;-55
2024/03/23 07:31:46;;;;;;;11.60;2.08;;;;;;;7.35;93.79;101268.84;5048897;28;20048;-59
2024/03/23 07:34:13;;;;;;;10.75;1.92;;;;;;;7.59;95.24;101264.38;5064250;28;20063;-59
2024/03/23 07:36:39;;;;;;;21.60;3.08;;;;;;;7.76;95.35;101265.66;5065847;28;20060;-56
2024/03/23 07:39:07;;;;;;;18.80;3.30;;;;;;;7.89;95.47;101269.72;5065569;28;20766;-61
2024/03/23 07:41:35;;;;;;;15.18;2.67;;;;;;;7.76;92.61;101259.34;5066070;28;20057;-57
2024/03/23 07:44:01;;;;;;;18.77;3.13;;;;;;;7.74;91.50;101259.63;5065196;28;20063;-60
2024/03/23 07:46:27;;;;;;;20.90;2.97;;;;;;;7.98;92.72;101262.53;5065245;28;20357;-58
2024/03/23 07:48:54;;;;;;;15.18;2.25;;;;;;;8.03;94.07;101262.50;5065537;28;20060;-60
2024/03/23 07:51:22;;;;;;;14.95;3.08;;;;;;;7.90;90.08;101252.16;5050999;28;20044;-60
2024/03/23 07:53:49;;;;;;;12.48;2.08;;;;;;;7.86;90.18;101251.09;5045734;28;20049;-59
2024/03/23 07:56:17;;;;;;;14.95;2.58;;;;;;;8.05;89.90;101245.75;5045514;28;20053;-58
2024/03/23 07:58:44;;;;;;;13.68;2.30;;;;;;;8.22;90.95;101252.50;5045225;28;20060;-56
2024/03/23 08:01:14;;;;;;;11.88;2.58;;;;;;;8.43;88.70;101261.44;5028885;28;20080;-57
2024/03/23 08:03:42;;;;;;;18.67;2.45;;;;;;;8.31;87.07;101253.59;5045702;28;20051;-59
2024/03/23 08:06:09;;;;;;;14.75;2.60;;;;;;;8.37;85.63;101265.34;5028711;28;20056;-56
2024/03/23 08:08:35;;;;;;;14.50;2.55;;;;;;;8.30;84.21;101267.59;5045543;28;20519;-58
2024/03/23 08:11:03;;;;;;;7.43;1.73;;;;;;;8.64;87.24;101266.50;5045275;28;20056;-57
2024/03/23 08:13:30;;;;;;;10.00;2.13;;;;;;;8.41;81.88;101255.41;5045287;28;20063;-56
2024/03/23 08:16:01;;;;;;;8.30;1.83;;;;;;;8.18;81.10;101264.31;5028335;28;20092;-56
2024/03/23 08:18:27;;;;;;;8.93;1.83;;;;;;;8.10;81.36;101267.69;5044553;28;20579;-57
2024/03/23 08:20:57;;;;;;;13.60;1.85;;;;;;;8.24;81.07;101265.97;5062102;28;20119;-56
2024/03/23 08:23:27;;;;;;;16.33;2.15;;;;;;;8.28;84.75;101276.09;5028849;28;20060;-60
2024/03/23 08:26:10;;;;;;;17.10;2.28;;;;;;;8.50;82.25;101276.50;5045112;28;20518;-56
2024/03/23 08:28:37;;;;;;;17.60;2.67;;;;;;;8.14;80.40;101271.50;5046513;28;20048;-57
2024/03/23 08:31:06;;;;;;;11.60;1.85;;;;;;;8.25;80.94;101276.66;5065412;28;20052;-56
2024/03/23 08:33:33;;;;;;;17.25;2.45;;;;;;;8.28;80.47;101278.03;5065452;28;20036;-54
2024/03/23 08:36:01;;;;;;;13.45;2.08;;;;;;;8.61;82.41;101283.53;5064660;28;20058;-57
2024/03/23 08:38:28;;;;;;;13.82;1.92;;;;;;;8.14;79.63;101287.97;5063772;28;20048;-58
2024/03/23 08:40:58;;;;;;;9.32;2.00;;;;;;;8.63;82.55;101275.03;5054571;28;20063;-54
2024/03/23 08:43:25;;;;;;;11.10;2.40;;;;;;;8.48;79.58;101278.69;5047571;28;20056;-58
2024/03/23 08:45:52;;;;;;;17.30;2.83;;;;;;;8.50;80.40;101272.91;5047992;28;20061;-57
2024/03/23 08:48:22;;;;;;;19.25;1.75;;;;;;;8.94;82.00;101279.94;5048964;28;20551;-58
2024/03/23 08:51:09;;;;;;;;;;;;;;;8.94;81.40;101271.72;5048861;28;20048;-59
2024/03/23 08:53:36;;;;;;;11.82;2.38;;;;;;;10.03;90.18;101270.72;5064678;28;20735;-54
2024/03/23 08:56:03;;;;;;;13.05;1.80;;;;;;;9.46;74.23;101270.09;5080153;28;20048;-56
2024/03/23 08:58:31;;;;;;;10.73;1.95;;;;;;;8.89;75.57;101273.72;5029705;28;20064;-57
2024/03/23 09:01:03;;;;;;;19.58;2.20;;;;;;;8.76;75.31;101282.59;5051740;28;20048;-55
2024/03/23 09:03:30;;;;;;;15.07;2.42;;;;;;;8.85;77.60;101280.88;5068085;28;20044;-57
2024/03/23 09:05:58;;;;;;;14.18;2.58;;;;;;;8.92;74.69;101278.63;5067846;28;20052;-56
2024/03/23 09:08:25;;;;;;;11.52;1.90;;;;;;;9.01;74.98;101277.69;5051395;28;20056;-54
2024/03/23 09:10:51;;;;;;;16.45;2.28;;;;;;;8.99;75.28;101270.84;5060225;28;20045;-58
2024/03/23 09:13:18;;;;;;;12.25;1.70;;;;;;;9.37;74.33;101277.31;5038312;28;20538;-55
2024/03/23 09:15:56;;;;;;;10.85;2.08;;;;;;;9.03;74.48;101269.97;5052333;28;20466;-56
2024/03/23 09:18:22;;;;;;;12.35;2.10;;;;;;;9.23;75.87;101273.63;5069589;28;20055;-55
2024/03/23 09:20:48;;;;;;;8.82;1.70;;;;;;;9.25;73.28;101280.50;5062663;28;20059;-58
2024/03/23 09:23:15;;;;;;;18.30;2.47;;;;;;;9.37;73.68;101277.31;5051405;28;20082;-57
2024/03/23 09:25:41;;;;;;;8.88;1.92;;;;;;;9.45;73.95;101273.97;5064791;28;20051;-57
2024/03/23 09:28:10;;;;;;;14.27;2.55;;;;;;;9.64;72.10;101274.81;5046773;28;20059;-58
2024/03/23 09:30:42;;;;;;;11.00;2.28;;;;;;;9.77;72.58;101260.34;5036907;28;20056;-53
2024/03/23 09:33:12;;;;;;;10.52;2.58;;;;;;;9.71;69.55;101267.03;5063008;28;20052;-56
2024/03/23 09:35:39;;;;;;;;;;;;;;;9.56;71.92;101268.03;5045733;28;20087;-54
2024/03/23 09:38:07;;;;;;;7.95;1.50;;;;;;;9.62;72.71;101277.88;5062160;28;19931;-62
2024/03/23 09:40:33;;;;;;;9.23;1.40;;;;;;;9.31;73.81;101284.00;5065773;28;20048;-52
2024/03/23 09:43:00;;;;;;;12.55;1.42;;;;;;;9.02;75.53;101282.09;5038527;28;20064;-57
2024/03/23 09:45:28;;;;;;;8.48;1.30;;;;;;;9.02;76.17;101281.25;5042817;28;20064;-62
2024/03/23 09:47:57;;;;;;;11.27;1.55;;;;;;;8.97;76.14;101273.06;5067298;28;20520;-56
2024/03/23 09:50:27;;;;;;;8.57;1.60;;;;;;;8.90;77.42;101254.19;5050793;28;20052;-59
2024/03/23 09:52:53;;;;;;;10.43;1.55;;;;;;;9.12;78.42;101258.38;5036574;28;20057;-55
2024/03/23 09:55:20;;;;;;;8.27;1.48;;;;;;;9.20;78.48;101249.47;5057283;28;20044;-57
2024/03/23 09:57:50;;;;;;;9.50;1.52;;;;;;;9.45;78.35;101247.25;5064085;28;20049;-56
2024/03/23 10:00:17;;;;;;;8.20;1.45;;;;;;;9.51;77.18;101254.34;5057976;28;20045;-52
2024/03/23 10:02:45;;;;;;;8.15;1.48;;;;;;;9.94;76.88;101244.97;5059535;28;20057;-57
2024/03/23 10:05:22;;;;;;;9.68;1.45;;;;;;;10.13;73.96;101245.84;5057580;28;20040;-58
2024/03/23 10:07:52;;;;;;;11.80;1.95;;;;;;;9.84;73.19;101250.63;5058496;28;20063;-55
2024/03/23 10:10:18;;;;;;;9.82;2.03;;;;;;;9.56;74.43;101240.53;5049891;28;20060;-59
2024/03/23 10:12:47;;;;;;;9.52;1.70;;;;;;;9.51;75.55;101234.28;5040161;28;20056;-55
2024/03/23 10:15:18;;;;;;;11.50;1.92;;;;;;;9.84;75.66;101236.88;5063798;28;20429;-59
2024/03/23 10:17:45;;;;;;;9.88;2.10;;;;;;;9.94;74.45;101233.97;5030705;28;20064;-57
2024/03/23 10:20:11;;;;;;;14.32;1.98;;;;;;;10.36;74.22;101224.84;5055323;28;20064;-58
2024/03/23 10:22:41;;;;;;;13.15;2.17;;;;;;;10.32;71.09;101231.25;5051036;28;20052;-58
2024/03/23 10:25:08;;;;;;;;;;;;;;;9.80;71.89;101230.31;5052545;28;20045;-58
2024/03/23 10:27:34;;;;;;;12.75;2.53;;;;;;;10.02;73.40;101227.00;5047749;28;19931;-57
2024/03/23 10:30:12;;;;;;;15.63;2.42;;;;;;;10.04;71.92;101233.03;5032070;28;20049;-60
2024/03/23 10:32:38;;;;;;;13.85;2.28;;;;;;;10.06;69.34;101217.00;5048561;28;20053;-58
2024/03/23 10:35:24;;;;;;;13.73;2.35;;;;;;;10.06;67.77;101206.00;5058670;28;20550;-57
2024/03/23 10:37:51;;;;;;;17.30;1.95;;;;;;;10.16;68.44;101203.13;5044082;28;20052;-59
2024/03/23 10:40:18;;;;;;;13.93;1.85;;;;;;;11.59;71.62;101192.78;5065745;28;20041;-63
2024/03/23 10:42:44;;;;;;;12.88;2.72;;;;;;;12.00;63.78;101182.47;5059699;28;20440;-58
2024/03/23 10:45:11;;;;;;;9.90;1.98;;;;;;;12.60;64.21;101182.94;5050219;28;20059;-59
2024/03/23 10:47:37;;;;;;;13.55;2.03;;;;;;;12.59;56.88;101181.31;5065123;28;20361;-63
2024/03/23 10:50:07;;;;;;;14.90;2.00;;;;;;;11.75;58.37;101183.88;5018302;28;20064;-61
2024/03/23 10:52:34;;;;;;;10.77;1.73;;;;;;;11.68;56.58;101172.44;5063033;28;20049;-60
2024/03/23 10:55:03;;;;;;;12.00;1.85;;;;;;;11.46;56.47;101161.31;5050231;28;20052;-57
2024/03/23 10:57:32;;;;;;;12.40;1.80;;;;;;;11.73;56.56;101152.22;5048386;28;20053;-59
2024/03/23 10:59:58;;;;;;;11.90;2.40;;;;;;;11.38;55.83;101156.53;5055531;28;20053;-58
2024/03/23 11:02:26;;;;;;;8.95;1.80;;;;;;;11.66;55.66;101149.06;5060202;28;20052;-61
2024/03/23 11:04:53;;;;;;;12.10;2.28;;;;;;;11.25;54.35;101149.91;5065099;28;20656;-59
2024/03/23 11:07:32;;;;;;;12.70;2.38;;;;;;;11.63;55.26;101155.97;5045782;28;20068;-60
2024/03/23 11:09:59;;;;;;;6.07;1.50;;;;;;;11.91;54.22;101142.94;5049168;28;20052;-59
2024/03/23 11:12:31;;;;;;;13.85;2.00;;;;;;;11.86;54.35;101148.56;5047213;28;20053;-61
2024/03/23 11:15:11;;;;;;;14.05;2.38;;;;;;;11.55;55.55;101148.44;5059370;28;20551;-60
2024/03/23 11:17:38;;;;;;;11.85;2.20;;;;;;;11.46;54.63;101143.94;5052496;28;20056;-60
2024/03/23 11:20:06;;;;;;;12.70;2.28;;;;;;;11.57;54.54;101137.91;5021802;28;20142;-54
2024/03/23 11:22:51;;;;;;;12.93;1.88;;;;;;;11.38;55.22;101141.91;5057854;28;20575;-59
2024/03/23 11:25:23;;;;;;;10.98;1.98;;;;;;;11.14;55.04;101142.94;5064564;28;20052;-58